aviador You're here:

UTAK Decoded Metar

KRASNOVODSK in RUSSIA
Report Time2018-02-22 08:00:00
UTC Time2018-02-22 08:50:06
Flight Rules vfr VFR
Wind090° at 02 kt
W.Decomp.*RWY 16: 0.5 kt HW 1.9 kt LCW
W.Rank090° ranks 1
Current wind is below 090° avg. (9.8)
Visibility9999 m
Phenomena:N/A
Clouds:N/A
Expected CloudBase > 4,000 ft AGL from Temp-Dew spread
CeilingNone
Temp10°C (ISA -4)
Dew Point00°C (50% RH)
AAT7.3°C
QNH1017 hPa
Density Alt-302 ft
Elevation279 ft
Report Wrong Elevation
Raw Report
UTAK 220800Z 09002KT CAVOK 10/M00 Q1017 R16R/CLRD70 NOSIG=

Extra information for UTAK:More info

Metar Taf Metar & Taf Last 4 Metars F.Rules Stats Wind Profile Meteogram Temp Stats Airport Information Weather charts Add Link Nearby VenuesMetar ALERT Operation Metar Decoded Social comments